Accueil
METAR-TAF:

METAR-TAF

Aéroports :

Nouakchott, Mauritanie

Aéroport international de Nouakchott-Oumtounsy

latitude: 18-18-36N, longitude: 015-58-11W, altitude: 3 m

Observation

Le bulletin a été fait il y a 20 minutes, à 19:00 UTC
Vent 16 kt de nord/nord-ouest
Température 25°C
Humidité 54%
Pression 1010 hPa
Visibilité: 8000 m

METAR: GQNO 261900Z 33016KT 8000 NSC 25/15 Q1010 NOSIG

Heure: 19:20 (19:20 UTC)

Prévision

Le bulletin a été fait il y a 2 heures et 20 minutes, à 17:00 UTC
Prévision valable du 26 à 18 UTC au 27 à 24 UTC
Vent 13 kt de nord/nord-ouest
Visibilité: 7000 m
Temporairement
du 27 à 10 UTC au 27 à 16 UTC
Vent 14 kt de nord-est

TAF: GQNO 261700Z 2618/2724 34013KT 7000 NSC TEMPO 2710/2716 05014KT

Observations et prévisions météorologiques de plus de 4000 aéroports (messages METAR et TAF).

Les stations disponibles sont représentées par des disques jaunes et rouges sur la carte.

Passer la souris dessus pour voir le nom de la station.

Cliquer dessus pour voir les observations et prévisions météorologiques.

Pour changer de carte: cliquez sur les boutons verts avec une croix noire pour zoomer, sur le bouton vert avec un tiret pour effectuer un zoom arrière, ou sur les flèches vertes pour les cartes adjacentes.


METAR-TAF: